Tumbling Shoals, Arkansas
Current Conditions -  °F | °C
As of 8:35 PM on Friday 24 Oct 2014 (Local Time) from KBVX Reporting Station
Clear Clear  
Wind Chill: 64°   Ceiling: Unl
Heat Index: 64°   Visibility: 10mi
Dew Point: 55°   Wind: 3mph
Humidity: 73%   Direction: 190°S
Pressure: 30.09"   Gusts: NA
Location:  35.54°N, 91.97°W
Report Text: KBVX 250135Z AUTO 19003KT 10SM CLR 18/13 A3009 RMK AO1
Loading
Personal Weather Stations






























Interactive Weather Map
Tropical Storm Tracking
New forecast layout! Learn more

10-Day Weather Forecast

Advertisements
Track Severe Weather on mobile